Time;durP1;ratioP1;P1;durP2;ratioP2;P2;SDS_P1;SDS_P2;PMS_P1;PMS_P2;Temp;Humidity;BMP_temperature;BMP_pressure;BME280_temperature;BME280_humidity;BME280_pressure;Samples;Min_cycle;Max_cycle;Signal;HPM_P1;HPM_P2
2021/12/10 00:02:11;;;;;;;13.07;5.17;;;5.80;99.90;;;;;;5039875;28;20177;-85
2021/12/10 00:04:40;;;;;;;8.73;4.93;;;5.70;99.90;;;;;;5045380;28;20181;-84
2021/12/10 00:07:19;;;;;;;11.80;4.97;;;5.70;99.90;;;;;;5028856;28;20173;-84
2021/12/10 00:09:48;;;;;;;11.60;4.67;;;5.70;99.90;;;;;;5046004;28;20176;-84
2021/12/10 00:12:23;;;;;;;7.87;4.43;;;5.60;99.90;;;;;;5049435;28;20174;-84
2021/12/10 00:14:51;;;;;;;10.93;4.53;;;5.70;99.90;;;;;;5025702;28;20685;-83
2021/12/10 00:17:19;;;;;;;9.40;4.23;;;5.60;99.90;;;;;;5029800;28;20590;-84
2021/12/10 00:19:49;;;;;;;9.93;4.03;;;5.70;99.90;;;;;;5027414;28;20184;-83
2021/12/10 00:22:24;;;;;;;10.57;4.13;;;5.60;99.90;;;;;;5025579;28;20212;-84
2021/12/10 00:24:52;;;;;;;9.80;3.70;;;5.70;99.90;;;;;;5025880;28;20183;-84
2021/12/10 00:27:30;;;;;;;11.43;3.97;;;5.60;99.90;;;;;;5026176;28;20193;-82
2021/12/10 00:30:19;;;;;;;7.60;3.60;;;5.50;99.90;;;;;;5025852;28;20188;-82
2021/12/10 00:32:48;;;;;;;12.60;3.67;;;5.50;99.90;;;;;;5057364;28;20182;-81
2021/12/10 00:35:22;;;;;;;8.00;3.90;;;5.50;99.90;;;;;;5059735;28;20196;-82
2021/12/10 00:37:48;;;;;;;8.00;4.10;;;5.50;99.90;;;;;;5044653;28;20181;-82
2021/12/10 00:40:16;;;;;;;10.47;4.20;;;5.40;99.90;;;;;;5038929;28;20189;-83
2021/12/10 00:42:45;;;;;;;6.97;3.43;;;5.60;99.90;;;;;;5038411;28;20261;-82
2021/12/10 00:45:12;;;;;;;7.57;3.67;;;5.60;99.90;;;;;;5033181;28;20200;-83
2021/12/10 00:47:47;;;;;;;5.63;3.73;;;5.60;99.90;;;;;;5042643;28;20288;-83
2021/12/10 00:50:19;;;;;;;11.57;3.90;;;5.60;99.90;;;;;;5053543;28;20207;-83
2021/12/10 00:52:45;;;;;;;6.73;3.60;;;5.70;99.90;;;;;;5046510;28;20184;-83
2021/12/10 00:55:12;;;;;;;8.37;3.93;;;5.60;99.90;;;;;;5031508;28;20680;-82
2021/12/10 00:57:39;;;;;;;8.33;3.77;;;5.60;99.90;;;;;;5050610;28;20158;-83
2021/12/10 01:00:14;;;;;;;7.77;3.60;;;5.70;99.90;;;;;;5043897;28;20265;-82
2021/12/10 01:02:40;;;;;;;9.33;3.70;;;5.70;99.90;;;;;;5041485;28;20172;-83
2021/12/10 01:05:14;;;;;;;8.60;3.33;;;5.70;99.90;;;;;;5039688;28;20268;-82
2021/12/10 01:08:00;;;;;;;10.33;3.57;;;5.80;99.90;;;;;;5034918;28;20177;-82
2021/12/10 01:10:33;;;;;;;8.47;3.63;;;5.80;99.90;;;;;;5054372;28;20166;-82
2021/12/10 01:13:08;;;;;;;8.50;2.80;;;5.80;99.90;;;;;;5016522;28;20181;-83
2021/12/10 01:15:48;;;;;;;6.57;3.00;;;5.70;99.90;;;;;;5037112;28;20256;-83
2021/12/10 01:24:16;;;;;;;7.17;3.23;;;5.90;99.90;;;;;;5079900;28;20184;-83
2021/12/10 01:29:18;;;;;;;6.10;2.77;;;5.70;99.90;;;;;;5063483;28;20597;-83
2021/12/10 01:31:45;;;;;;;6.07;3.00;;;5.70;99.90;;;;;;5045094;28;20637;-82
2021/12/10 01:34:14;;;;;;;6.60;2.50;;;5.70;99.90;;;;;;5044922;28;20208;-84
2021/12/10 01:36:40;;;;;;;5.10;2.30;;;5.90;99.90;;;;;;5027658;28;20182;-82
2021/12/10 01:39:12;;;;;;;9.50;3.03;;;5.80;99.90;;;;;;5029467;28;20177;-82
2021/12/10 01:41:41;;;;;;;8.30;2.47;;;5.80;99.90;;;;;;5042482;28;20229;-82
2021/12/10 01:44:15;;;;;;;6.23;2.30;;;5.90;99.90;;;;;;5040958;28;20233;-81
2021/12/10 01:46:44;;;;;;;6.03;2.43;;;6.00;99.90;;;;;;5061835;28;20208;-81
2021/12/10 01:49:16;;;;;;;5.93;2.70;;;5.90;99.90;;;;;;5075244;28;20199;-83
2021/12/10 01:51:45;;;;;;;8.07;2.40;;;5.90;99.90;;;;;;5050633;28;20203;-82
2021/12/10 01:54:19;;;;;;;5.53;2.10;;;5.90;99.90;;;;;;5065176;28;20197;-83
2021/12/10 01:56:46;;;;;;;6.87;2.13;;;6.00;99.90;;;;;;5065265;28;20161;-82
2021/12/10 01:59:13;;;;;;;6.13;1.97;;;6.10;99.90;;;;;;5030739;28;20177;-83
2021/12/10 02:01:44;;;;;;;6.23;3.10;;;6.00;99.90;;;;;;5065298;28;20165;-83
2021/12/10 02:04:13;;;;;;;4.47;1.97;;;6.00;99.90;;;;;;5039327;28;20170;-83
2021/12/10 02:06:39;;;;;;;7.40;2.03;;;6.00;99.90;;;;;;5011725;28;20192;-81
2021/12/10 02:09:07;;;;;;;6.20;1.70;;;6.00;99.90;;;;;;5027335;28;20212;-83
2021/12/10 02:11:34;;;;;;;6.23;1.80;;;5.90;99.90;;;;;;5026978;28;20186;-83
2021/12/10 02:13:59;;;;;;;2.80;1.80;;;6.10;99.90;;;;;;5032804;28;20339;-83
2021/12/10 02:16:29;;;;;;;3.53;1.50;;;6.10;99.90;;;;;;5046496;28;20174;-83
2021/12/10 02:18:55;;;;;;;3.93;1.40;;;6.10;99.90;;;;;;5037838;28;20165;-83
2021/12/10 02:21:24;;;;;;;6.57;1.97;;;6.10;99.90;;;;;;5039638;28;20174;-83
2021/12/10 02:23:57;;;;;;;3.23;1.43;;;6.10;99.90;;;;;;5025212;28;20255;-83
2021/12/10 02:26:31;;;;;;;4.00;1.80;;;6.10;99.90;;;;;;5025382;28;20209;-83
2021/12/10 02:28:58;;;;;;;2.90;1.30;;;6.00;99.90;;;;;;5032362;28;20168;-83
2021/12/10 02:31:25;;;;;;;3.50;1.30;;;6.10;99.90;;;;;;5045467;28;20177;-83
2021/12/10 02:33:54;;;;;;;7.10;1.40;;;6.30;99.90;;;;;;5030109;28;20205;-84
2021/12/10 02:36:20;;;;;;;5.03;1.40;;;6.10;99.90;;;;;;5029988;28;20180;-83
2021/12/10 02:38:52;;;;;;;3.57;1.00;;;6.10;99.90;;;;;;5045049;28;20187;-82
2021/12/10 02:41:20;;;;;;;5.13;1.40;;;6.20;99.90;;;;;;5064880;28;20582;-83
2021/12/10 02:43:47;;;;;;;5.47;1.43;;;6.00;99.90;;;;;;5045060;28;20203;-82
2021/12/10 02:46:14;;;;;;;3.67;1.43;;;6.10;99.90;;;;;;5045663;28;20242;-83
2021/12/10 02:48:40;;;;;;;2.87;1.30;;;6.00;99.90;;;;;;5044055;28;20193;-83
2021/12/10 02:51:09;;;;;;;2.57;1.07;;;5.90;99.90;;;;;;5027356;28;20567;-83
2021/12/10 02:53:42;;;;;;;5.87;1.30;;;5.90;99.90;;;;;;5026936;28;20185;-83
2021/12/10 02:56:09;;;;;;;4.50;1.13;;;5.80;99.90;;;;;;5027094;28;20170;-81
2021/12/10 02:58:35;;;;;;;2.93;1.10;;;5.80;99.90;;;;;;5042076;28;20243;-84
2021/12/10 03:01:41;;;;;;;2.57;1.10;;;5.80;99.90;;;;;;5037122;28;20625;-83
2021/12/10 03:04:09;;;;;;;2.37;0.90;;;5.80;99.90;;;;;;4997222;28;20212;-83
2021/12/10 03:06:40;;;;;;;5.53;2.17;;;5.80;99.90;;;;;;5025600;28;20177;-81
2021/12/10 03:09:06;;;;;;;2.03;0.80;;;5.70;99.90;;;;;;5026681;28;20185;-83
2021/12/10 03:11:34;;;;;;;2.97;0.97;;;5.70;99.90;;;;;;5035345;28;20186;-84
2021/12/10 03:14:08;;;;;;;2.07;1.13;;;5.60;99.90;;;;;;5032969;28;20208;-83
2021/12/10 03:16:35;;;;;;;3.27;1.10;;;5.50;99.90;;;;;;5014040;28;20177;-84
2021/12/10 03:19:02;;;;;;;2.67;1.00;;;5.60;99.90;;;;;;5022526;28;20174;-83
2021/12/10 03:21:28;;;;;;;1.07;0.70;;;5.50;99.90;;;;;;5016653;28;20174;-83
2021/12/10 03:23:53;;;;;;;3.27;0.87;;;5.50;99.90;;;;;;5016627;28;20319;-83
2021/12/10 03:26:21;;;;;;;3.50;1.00;;;5.40;99.90;;;;;;5015625;28;20261;-83
2021/12/10 03:28:49;;;;;;;2.33;1.13;;;5.60;99.90;;;;;;5028079;28;20177;-82
2021/12/10 03:31:17;;;;;;;3.47;1.17;;;5.50;99.90;;;;;;5036666;28;20591;-83
2021/12/10 03:33:45;;;;;;;2.40;0.90;;;5.50;99.90;;;;;;5046505;28;20234;-82
2021/12/10 03:36:13;;;;;;;1.83;0.97;;;5.40;99.90;;;;;;5043511;28;20189;-83
2021/12/10 03:38:39;;;;;;;2.40;0.93;;;5.40;99.90;;;;;;5028435;28;20610;-83
2021/12/10 03:41:06;;;;;;;3.10;0.90;;;5.40;99.90;;;;;;5017038;28;20249;-83
2021/12/10 03:43:34;;;;;;;2.47;0.90;;;5.30;99.90;;;;;;5018719;28;20166;-82
2021/12/10 03:46:00;;;;;;;3.60;1.20;;;5.40;99.90;;;;;;5026850;28;20197;-82
2021/12/10 03:48:33;;;;;;;0.90;0.70;;;5.40;99.90;;;;;;5031650;28;20199;-81
2021/12/10 03:51:02;;;;;;;4.20;1.03;;;5.30;99.90;;;;;;5048520;28;20161;-81
2021/12/10 03:53:28;;;;;;;1.37;0.90;;;5.40;99.90;;;;;;5041790;28;20175;-84
2021/12/10 03:56:03;;;;;;;3.53;0.80;;;5.20;99.90;;;;;;5040267;28;20166;-82
2021/12/10 03:58:29;;;;;;;2.43;0.70;;;5.20;99.90;;;;;;5048874;28;20173;-82
2021/12/10 04:00:57;;;;;;;0.87;0.63;;;5.20;99.90;;;;;;5030321;28;20162;-81
2021/12/10 04:03:27;;;;;;;1.83;0.90;;;5.20;99.90;;;;;;5040835;28;20174;-81
2021/12/10 04:05:54;;;;;;;0.90;0.80;;;5.10;99.90;;;;;;5040877;28;20221;-81
2021/12/10 04:08:22;;;;;;;3.10;0.80;;;5.10;99.90;;;;;;5035542;28;20630;-83
2021/12/10 04:11:06;;;;;;;0.93;0.73;;;5.10;99.90;;;;;;5034356;28;20210;-82
2021/12/10 04:13:32;;;;;;;1.80;0.77;;;5.20;99.90;;;;;;5037456;28;20177;-82
2021/12/10 04:15:59;;;;;;;5.27;1.00;;;5.10;99.90;;;;;;5038939;28;20569;-83
2021/12/10 04:18:25;;;;;;;2.37;0.80;;;5.10;99.90;;;;;;5038797;28;20169;-83
2021/12/10 04:20:51;;;;;;;0.70;0.60;;;5.20;99.90;;;;;;5039626;28;20584;-83
2021/12/10 04:23:20;;;;;;;0.97;0.60;;;5.10;99.90;;;;;;5066023;28;20157;-82
2021/12/10 04:25:46;;;;;;;2.03;0.73;;;5.10;99.90;;;;;;5063413;28;20161;-82
2021/12/10 04:28:15;;;;;;;2.13;0.70;;;5.10;99.90;;;;;;5062929;28;20256;-81
2021/12/10 04:30:45;;;;;;;1.53;0.60;;;5.20;99.90;;;;;;5043055;28;20630;-82
2021/12/10 04:33:15;;;;;;;1.63;0.80;;;5.10;99.90;;;;;;5040896;28;20196;-82
2021/12/10 04:35:43;;;;;;;1.67;0.70;;;5.10;99.90;;;;;;5039076;28;20174;-81
2021/12/10 04:38:13;;;;;;;2.67;0.90;;;5.10;99.90;;;;;;5023703;28;20193;-82
2021/12/10 04:40:39;;;;;;;1.87;0.80;;;5.20;99.90;;;;;;5022028;28;20232;-82
2021/12/10 04:43:05;;;;;;;1.60;0.70;;;5.20;99.90;;;;;;5018931;28;20178;-82
2021/12/10 04:45:31;;;;;;;1.00;0.60;;;5.20;99.90;;;;;;5002979;28;20177;-82
2021/12/10 04:47:57;;;;;;;1.67;0.80;;;5.10;99.90;;;;;;5035211;28;20192;-82
2021/12/10 04:50:27;;;;;;;1.60;0.77;;;5.10;99.90;;;;;;5059913;28;20728;-83
2021/12/10 04:52:55;;;;;;;2.00;1.03;;;5.10;99.90;;;;;;5042119;28;20177;-82
2021/12/10 04:55:22;;;;;;;1.63;0.70;;;5.10;99.90;;;;;;5056502;28;20206;-83
2021/12/10 04:57:48;;;;;;;1.33;0.90;;;5.10;99.90;;;;;;5042128;28;20168;-82
2021/12/10 05:00:23;;;;;;;1.47;0.73;;;5.10;99.90;;;;;;5052800;28;20176;-82
2021/12/10 05:02:49;;;;;;;1.90;0.63;;;5.00;99.90;;;;;;5070770;28;20178;-81
2021/12/10 05:05:15;;;;;;;1.53;0.60;;;5.00;99.90;;;;;;5075286;28;20161;-82
2021/12/10 05:07:42;;;;;;;1.80;0.60;;;5.00;99.90;;;;;;5042314;28;20158;-82
2021/12/10 05:10:10;;;;;;;0.63;0.60;;;5.00;99.90;;;;;;5039683;28;20187;-83
2021/12/10 05:12:39;;;;;;;2.43;0.70;;;4.90;99.90;;;;;;5031807;28;20170;-83
2021/12/10 05:15:23;;;;;;;0.90;0.60;;;5.00;99.90;;;;;;5059823;28;20197;-82
2021/12/10 05:17:57;;;;;;;1.27;0.70;;;4.90;99.90;;;;;;5042061;28;20173;-82
2021/12/10 05:20:29;;;;;;;1.03;0.60;;;4.90;99.90;;;;;;5041167;28;20157;-81
2021/12/10 05:22:55;;;;;;;1.43;0.67;;;4.90;99.90;;;;;;5023732;28;20170;-83
2021/12/10 05:25:27;;;;;;;4.87;2.23;;;5.00;99.90;;;;;;5019772;28;20543;-84
2021/12/10 05:27:54;;;;;;;2.97;1.20;;;4.90;99.90;;;;;;5034971;28;20170;-83
2021/12/10 05:30:28;;;;;;;1.43;0.70;;;5.00;99.90;;;;;;5017561;28;20201;-83
2021/12/10 05:32:57;;;;;;;1.27;1.17;;;5.00;99.90;;;;;;5021298;28;20199;-84
2021/12/10 05:35:24;;;;;;;2.37;1.10;;;5.00;99.90;;;;;;5025610;28;20201;-84
2021/12/10 05:37:50;;;;;;;1.50;0.70;;;5.20;99.90;;;;;;5037442;28;20276;-84
2021/12/10 05:40:16;;;;;;;0.70;0.60;;;5.30;99.90;;;;;;5037334;28;20260;-84
2021/12/10 05:42:44;;;;;;;1.50;0.80;;;5.30;99.90;;;;;;5055355;28;20169;-83
2021/12/10 05:45:11;;;;;;;2.93;1.00;;;5.30;99.90;;;;;;5033505;28;20185;-83
2021/12/10 05:47:37;;;;;;;1.30;0.90;;;5.30;99.90;;;;;;5017168;28;20190;-82
2021/12/10 05:50:05;;;;;;;1.33;0.80;;;5.10;99.90;;;;;;5017160;28;20212;-83
2021/12/10 05:52:31;;;;;;;1.33;0.97;;;5.10;99.90;;;;;;5017183;28;20174;-83
2021/12/10 05:54:57;;;;;;;1.77;0.77;;;5.10;99.90;;;;;;5017719;28;20212;-83
2021/12/10 05:57:23;;;;;;;1.87;0.83;;;5.20;99.90;;;;;;5036715;28;20172;-84
2021/12/10 05:59:48;;;;;;;1.97;1.00;;;5.20;99.90;;;;;;5036762;28;20679;-83
2021/12/10 06:02:14;;;;;;;1.73;0.90;;;5.10;99.90;;;;;;5037810;28;20178;-84
2021/12/10 06:04:42;;;;;;;2.03;1.00;;;5.10;99.90;;;;;;5037150;28;20162;-81
2021/12/10 06:07:08;;;;;;;1.13;0.70;;;4.90;99.90;;;;;;5017386;28;20178;-81
2021/12/10 06:09:34;;;;;;;2.10;0.60;;;5.10;99.90;;;;;;5018074;28;20181;-82
2021/12/10 06:12:03;;;;;;;1.97;0.80;;;4.80;99.90;;;;;;5036230;28;20238;-83
2021/12/10 06:14:29;;;;;;;1.80;0.80;;;4.80;99.90;;;;;;5037918;28;20524;-84
2021/12/10 06:16:55;;;;;;;1.13;0.80;;;4.80;99.90;;;;;;5038439;28;20169;-83
2021/12/10 06:19:23;;;;;;;2.07;1.30;;;4.90;99.90;;;;;;5039601;28;20250;-83
2021/12/10 06:21:49;;;;;;;1.67;0.70;;;4.90;99.90;;;;;;5061163;28;20653;-84
2021/12/10 06:24:14;;;;;;;0.60;0.57;;;4.90;99.90;;;;;;5041840;28;20633;-83
2021/12/10 06:26:40;;;;;;;1.73;0.80;;;5.00;99.90;;;;;;5039532;28;20176;-83
2021/12/10 06:29:07;;;;;;;0.93;0.60;;;4.90;99.90;;;;;;5054918;28;20180;-84
2021/12/10 06:31:34;;;;;;;1.70;0.77;;;4.90;99.90;;;;;;5037241;28;20684;-84
2021/12/10 06:34:00;;;;;;;1.20;0.90;;;5.00;99.90;;;;;;5055991;28;20189;-84
2021/12/10 06:36:27;;;;;;;2.57;0.90;;;5.00;99.90;;;;;;5061784;28;20212;-84
2021/12/10 06:38:53;;;;;;;2.00;0.90;;;5.10;99.90;;;;;;5053677;28;20165;-83
2021/12/10 06:41:20;;;;;;;1.20;0.80;;;5.10;99.90;;;;;;5054829;28;20714;-84
2021/12/10 06:43:46;;;;;;;3.00;0.73;;;5.20;99.90;;;;;;5041261;28;20173;-83
2021/12/10 06:46:13;;;;;;;1.63;0.80;;;4.90;99.90;;;;;;5024936;28;20247;-85
2021/12/10 06:48:39;;;;;;;1.10;0.70;;;4.90;99.90;;;;;;5036559;28;20199;-84
2021/12/10 06:51:11;;;;;;;1.73;0.90;;;5.00;99.90;;;;;;5055469;28;20175;-85
2021/12/10 06:53:38;;;;;;;2.63;1.03;;;5.10;99.90;;;;;;5029551;28;20164;-84
2021/12/10 06:56:07;;;;;;;1.90;1.03;;;5.20;99.90;;;;;;5036581;28;20621;-84
2021/12/10 06:58:35;;;;;;;1.40;0.80;;;5.10;99.90;;;;;;5036685;28;20182;-84
2021/12/10 07:01:09;;;;;;;1.07;0.93;;;5.10;99.90;;;;;;5037756;28;20169;-84
2021/12/10 07:03:35;;;;;;;0.70;0.70;;;5.10;99.90;;;;;;5036549;28;20195;-84
2021/12/10 07:06:03;;;;;;;1.67;0.80;;;5.20;99.90;;;;;;5050264;28;20189;-83
2021/12/10 07:08:31;;;;;;;0.70;0.70;;;5.10;99.90;;;;;;5065434;28;20184;-82
2021/12/10 07:10:59;;;;;;;0.93;0.70;;;5.10;99.90;;;;;;5073083;28;20183;-80
2021/12/10 07:13:26;;;;;;;1.20;0.90;;;5.20;99.90;;;;;;5064832;28;20153;-84
2021/12/10 07:15:55;;;;;;;1.93;0.80;;;5.10;99.90;;;;;;5045344;28;20172;-84
2021/12/10 07:19:03;;;;;;;1.23;0.73;;;5.20;99.90;;;;;;5039462;28;20246;-81
2021/12/10 07:21:44;;;;;;;1.10;1.00;;;5.10;99.90;;;;;;5055007;28;20236;-81
2021/12/10 07:24:12;;;;;;;1.23;1.00;;;5.20;99.90;;;;;;5061521;28;20191;-83
2021/12/10 07:26:38;;;;;;;3.40;1.57;;;5.20;99.90;;;;;;5041283;28;20187;-84
2021/12/10 07:29:07;;;;;;;9.10;3.90;;;5.10;99.90;;;;;;5039616;28;20199;-84
2021/12/10 07:31:34;;;;;;;3.83;2.20;;;5.10;99.90;;;;;;5039705;28;20184;-83
2021/12/10 07:34:02;;;;;;;2.97;1.47;;;5.10;99.90;;;;;;5069007;28;20180;-82
2021/12/10 07:36:30;;;;;;;4.03;2.27;;;5.10;99.90;;;;;;5077328;28;20157;-81
2021/12/10 07:38:58;;;;;;;1.57;1.10;;;5.00;99.90;;;;;;5059771;28;20260;-83
2021/12/10 07:41:25;;;;;;;1.33;1.00;;;5.00;99.90;;;;;;5059910;28;20160;-82
2021/12/10 07:43:54;;;;;;;1.73;0.80;;;5.00;99.90;;;;;;5055239;28;20181;-84
2021/12/10 07:46:34;;;;;;;1.40;0.93;;;4.80;99.90;;;;;;5037315;28;20189;-84
2021/12/10 07:49:02;;;;;;;2.73;2.00;;;4.70;99.90;;;;;;5036371;28;20285;-84
2021/12/10 07:51:30;;;;;;;3.20;2.30;;;4.70;99.90;;;;;;5055558;28;20173;-82
2021/12/10 07:53:57;;;;;;;4.73;2.20;;;4.90;99.90;;;;;;5040164;28;20227;-84
2021/12/10 07:56:26;;;;;;;1.17;0.73;;;4.80;99.90;;;;;;5039114;28;20181;-82
2021/12/10 07:58:53;;;;;;;1.30;0.87;;;4.80;99.90;;;;;;5057828;28;20180;-84
2021/12/10 08:01:25;;;;;;;1.80;1.43;;;4.90;99.90;;;;;;5040103;28;20172;-84
2021/12/10 08:03:52;;;;;;;2.30;0.97;;;5.00;99.90;;;;;;5037259;28;20573;-84
2021/12/10 08:06:20;;;;;;;1.17;0.80;;;5.00;99.90;;;;;;5041209;28;20529;-82
2021/12/10 08:08:46;;;;;;;0.87;0.80;;;5.20;99.90;;;;;;5040980;28;20550;-84
2021/12/10 08:11:13;;;;;;;2.03;1.33;;;5.40;99.90;;;;;;5050189;28;20197;-82
2021/12/10 08:13:40;;;;;;;2.73;1.10;;;5.40;99.90;;;;;;5045443;28;20243;-85
2021/12/10 08:16:08;;;;;;;1.10;0.70;;;5.20;99.90;;;;;;5039635;28;20273;-83
2021/12/10 08:18:33;;;;;;;1.30;1.00;;;5.20;99.90;;;;;;5058494;28;20173;-83
2021/12/10 08:21:00;;;;;;;3.27;1.90;;;5.20;99.90;;;;;;5057642;28;20176;-84
2021/12/10 08:23:26;;;;;;;3.03;1.60;;;5.30;99.90;;;;;;5039478;28;20205;-84
2021/12/10 08:25:52;;;;;;;2.83;0.70;;;5.20;99.60;;;;;;5060782;28;20177;-82
2021/12/10 08:28:22;;;;;;;2.73;1.40;;;5.20;99.60;;;;;;5058196;28;20564;-82
2021/12/10 08:30:49;;;;;;;1.60;1.10;;;5.10;99.90;;;;;;5063452;28;20164;-82
2021/12/10 08:33:17;;;;;;;1.53;1.43;;;5.20;99.90;;;;;;5080742;28;20157;-82
2021/12/10 08:35:51;;;;;;;2.23;0.80;;;5.20;99.90;;;;;;5080740;28;20343;-82
2021/12/10 08:38:23;;;;;;;1.03;0.93;;;5.10;99.90;;;;;;5063343;28;20157;-81
2021/12/10 08:40:57;;;;;;;1.43;1.00;;;5.10;99.90;;;;;;5080625;28;20180;-82
2021/12/10 08:43:24;;;;;;;2.83;1.30;;;5.10;99.90;;;;;;5062850;28;20153;-82
2021/12/10 08:45:52;;;;;;;2.33;1.20;;;5.10;99.90;;;;;;5080155;28;20189;-82
2021/12/10 08:48:20;;;;;;;1.90;1.30;;;5.10;99.90;;;;;;5062672;28;20220;-83
2021/12/10 08:50:46;;;;;;;1.20;1.00;;;5.10;99.90;;;;;;5062558;28;20168;-82
2021/12/10 08:53:13;;;;;;;1.93;1.20;;;5.10;99.90;;;;;;5062568;28;20199;-82
2021/12/10 08:55:44;;;;;;;1.67;1.40;;;5.10;99.90;;;;;;5061804;28;20220;-81
2021/12/10 08:58:13;;;;;;;1.50;1.20;;;5.20;99.90;;;;;;5053837;28;20165;-85
2021/12/10 09:00:52;;;;;;;2.07;1.33;;;5.20;99.90;;;;;;5049927;28;20277;-84
2021/12/10 09:03:32;;;;;;;2.57;1.40;;;5.30;99.90;;;;;;5042838;28;20172;-85
2021/12/10 09:05:59;;;;;;;1.90;1.17;;;5.20;99.80;;;;;;5026443;28;20201;-82
2021/12/10 09:08:24;;;;;;;4.37;1.27;;;5.00;99.80;;;;;;5052690;28;20287;-83
2021/12/10 09:10:50;;;;;;;4.40;2.50;;;4.80;99.90;;;;;;5070224;28;20648;-83
2021/12/10 09:13:20;;;;;;;2.93;1.70;;;4.90;99.90;;;;;;5064715;28;20191;-83
2021/12/10 09:15:49;;;;;;;2.20;1.70;;;5.10;99.90;;;;;;5062039;28;20193;-85
2021/12/10 09:18:16;;;;;;;3.33;1.83;;;5.00;99.90;;;;;;5044688;28;20168;-83
2021/12/10 09:20:48;;;;;;;1.93;1.50;;;4.80;99.90;;;;;;5044000;28;20200;-83
2021/12/10 09:23:17;;;;;;;2.73;1.90;;;4.40;99.90;;;;;;5047259;28;20180;-83
2021/12/10 09:25:44;;;;;;;3.97;2.17;;;4.70;99.90;;;;;;5020995;28;20457;-83
2021/12/10 09:28:13;;;;;;;1.80;1.53;;;4.90;99.90;;;;;;5055370;28;20187;-83
2021/12/10 09:30:43;;;;;;;3.37;2.27;;;5.00;99.90;;;;;;5037237;28;20181;-83
2021/12/10 09:33:09;;;;;;;3.40;2.10;;;4.90;99.90;;;;;;5037241;28;20177;-82
2021/12/10 09:35:37;;;;;;;2.97;2.20;;;5.00;99.90;;;;;;5055495;28;20215;-82
2021/12/10 09:38:04;;;;;;;2.27;1.80;;;5.10;99.90;;;;;;5039578;28;20272;-82
2021/12/10 09:40:41;;;;;;;3.00;1.87;;;5.20;99.90;;;;;;5037859;28;20181;-84
2021/12/10 09:43:10;;;;;;;3.77;2.17;;;5.30;99.90;;;;;;5037328;28;20184;-85
2021/12/10 09:45:38;;;;;;;5.10;2.00;;;5.40;99.90;;;;;;5054614;28;20251;-83
2021/12/10 09:48:07;;;;;;;6.70;2.17;;;5.50;99.90;;;;;;5057182;28;20613;-83
2021/12/10 09:50:37;;;;;;;3.73;2.33;;;5.80;99.90;;;;;;5039581;28;20260;-83
2021/12/10 09:53:04;;;;;;;3.73;2.07;;;5.60;99.80;;;;;;5029528;28;20189;-83
2021/12/10 09:55:31;;;;;;;6.47;4.17;;;5.40;99.70;;;;;;5042154;28;20631;-86
2021/12/10 09:57:57;;;;;;;3.33;1.90;;;5.60;99.90;;;;;;5028680;28;20189;-85
2021/12/10 10:00:38;;;;;;;3.00;2.10;;;5.40;99.90;;;;;;5055687;28;20355;-85
2021/12/10 10:03:06;;;;;;;2.40;1.73;;;5.40;99.90;;;;;;5045372;28;20172;-86
2021/12/10 10:05:32;;;;;;;2.27;2.00;;;5.50;99.90;;;;;;5054285;28;20648;-84
2021/12/10 10:08:04;;;;;;;2.30;1.83;;;5.70;99.90;;;;;;5051381;28;20188;-86
2021/12/10 10:10:31;;;;;;;3.10;1.73;;;5.70;99.80;;;;;;5056063;28;20173;-83
2021/12/10 10:12:58;;;;;;;4.50;1.97;;;5.80;99.60;;;;;;5036942;28;20192;-85
2021/12/10 10:15:30;;;;;;;4.03;2.30;;;5.80;99.10;;;;;;5054990;28;20277;-85
2021/12/10 10:17:58;;;;;;;2.47;1.80;;;5.90;98.70;;;;;;5037835;28;20224;-85
2021/12/10 10:20:26;;;;;;;1.87;1.57;;;6.00;98.40;;;;;;5056109;28;20177;-83
2021/12/10 10:22:52;;;;;;;2.77;2.03;;;5.80;97.80;;;;;;5043179;28;20173;-84
2021/12/10 10:25:23;;;;;;;5.33;2.30;;;5.90;97.90;;;;;;5057078;28;20154;-83
2021/12/10 10:27:49;;;;;;;2.90;1.80;;;6.20;97.00;;;;;;5044281;28;20261;-84
2021/12/10 10:30:32;;;;;;;2.63;1.83;;;5.90;96.20;;;;;;5024063;28;20188;-83
2021/12/10 10:33:02;;;;;;;2.40;1.87;;;6.00;95.10;;;;;;5058908;28;20184;-85
2021/12/10 10:35:36;;;;;;;3.60;2.20;;;5.90;94.80;;;;;;5060353;28;20208;-85
2021/12/10 10:38:04;;;;;;;2.40;1.90;;;5.90;95.70;;;;;;5076926;28;20185;-85
2021/12/10 10:40:35;;;;;;;3.00;2.07;;;5.80;95.60;;;;;;5056555;28;20168;-84
2021/12/10 10:43:02;;;;;;;3.27;2.10;;;5.70;95.40;;;;;;5047687;28;20173;-85
2021/12/10 10:45:34;;;;;;;3.30;1.97;;;5.80;96.20;;;;;;5065697;28;20181;-85
2021/12/10 10:48:15;;;;;;;3.33;2.33;;;5.60;97.10;;;;;;5024275;28;20243;-85
2021/12/10 10:50:58;;;;;;;4.37;2.70;;;5.50;97.40;;;;;;5041967;28;20536;-85
2021/12/10 10:53:30;;;;;;;3.57;2.40;;;5.50;96.20;;;;;;5057540;28;20259;-85
2021/12/10 10:56:04;;;;;;;4.03;2.70;;;5.50;95.90;;;;;;5075901;28;20195;-84
2021/12/10 10:58:46;;;;;;;3.00;2.40;;;5.10;96.50;;;;;;5040068;28;20189;-84
2021/12/10 11:01:26;;;;;;;4.03;2.83;;;5.20;97.20;;;;;;5040785;28;20185;-85
2021/12/10 11:04:13;;;;;;;3.27;2.87;;;5.10;97.20;;;;;;5060416;28;20172;-83
2021/12/10 11:06:44;;;;;;;3.50;3.20;;;4.90;97.80;;;;;;5076190;28;20160;-84
2021/12/10 11:09:20;;;;;;;4.10;3.57;;;4.70;98.50;;;;;;5042188;28;20186;-85
2021/12/10 11:12:00;;;;;;;4.10;3.70;;;4.70;98.90;;;;;;5038218;28;20172;-86
2021/12/10 11:14:48;;;;;;;4.93;3.77;;;4.60;99.50;;;;;;5050723;28;20204;-85
2021/12/10 11:17:40;;;;;;;4.80;3.90;;;4.50;99.90;;;;;;5037052;28;20184;-85
2021/12/10 11:20:27;;;;;;;4.60;4.00;;;4.50;99.90;;;;;;5052769;28;20177;-84
2021/12/10 11:22:57;;;;;;;5.40;4.50;;;4.50;99.90;;;;;;5055397;28;20629;-85
2021/12/10 11:25:27;;;;;;;5.90;4.40;;;4.50;99.90;;;;;;5028763;28;20219;-85
2021/12/10 11:28:16;;;;;;;7.57;5.07;;;4.50;99.90;;;;;;5050757;28;20227;-83
2021/12/10 11:30:51;;;;;;;6.07;4.67;;;4.20;99.90;;;;;;5030556;28;20196;-85
2021/12/10 11:33:23;;;;;;;6.67;5.70;;;4.20;99.90;;;;;;5039796;28;20176;-83
2021/12/10 11:35:53;;;;;;;5.10;4.60;;;4.10;99.90;;;;;;5057713;28;20213;-86
2021/12/10 11:38:28;;;;;;;5.93;4.63;;;4.00;99.90;;;;;;5059051;28;20180;-87
2021/12/10 11:41:05;;;;;;;6.27;5.30;;;4.00;99.90;;;;;;5058925;28;20168;-86
2021/12/10 11:44:06;;;;;;;5.43;4.93;;;4.00;99.90;;;;;;5043688;28;20176;-87
2021/12/10 11:47:24;;;;;;;5.63;5.03;;;3.70;99.90;;;;;;5033659;28;20641;-85
2021/12/10 11:49:47;;;;;;;6.07;5.30;;;3.50;99.90;;;;;;5054171;28;20205;-84
2021/12/10 11:52:21;;;;;;;7.30;6.60;;;3.50;99.90;;;;;;5038398;28;20186;-85
2021/12/10 11:55:07;;;;;;;8.30;7.43;;;3.60;99.90;;;;;;5043609;28;20255;-84
2021/12/10 11:57:40;;;;;;;9.37;8.47;;;3.60;99.90;;;;;;5046036;28;20200;-84
2021/12/10 12:00:16;;;;;;;8.63;7.27;;;3.60;99.90;;;;;;5028422;28;20543;-84
2021/12/10 12:02:52;;;;;;;7.30;6.60;;;3.60;99.90;;;;;;5037773;28;20178;-84
2021/12/10 12:05:22;;;;;;;8.17;7.00;;;3.50;99.90;;;;;;5037998;28;20173;-84
2021/12/10 12:07:57;;;;;;;9.20;7.57;;;3.50;99.90;;;;;;5041277;28;20187;-84
2021/12/10 12:10:28;;;;;;;7.83;7.03;;;3.60;99.90;;;;;;5046641;28;20164;-85
2021/12/10 12:13:30;;;;;;;8.07;6.70;;;3.50;99.90;;;;;;5041049;28;20665;-86
2021/12/10 12:16:01;;;;;;;8.57;7.67;;;3.40;99.90;;;;;;5056113;28;20211;-85
2021/12/10 12:18:31;;;;;;;8.63;7.73;;;3.50;99.90;;;;;;5043201;28;20192;-85
2021/12/10 12:27:12;;;;;;;9.57;8.57;;;3.70;99.90;;;;;;5056513;28;20275;-88
2021/12/10 12:30:02;;;;;;;10.57;9.27;;;3.70;99.90;;;;;;5046318;28;20200;-84
2021/12/10 12:32:32;;;;;;;10.43;9.20;;;3.70;99.90;;;;;;5044585;28;20223;-85
2021/12/10 12:35:22;;;;;;;9.90;8.27;;;3.70;99.90;;;;;;5039357;28;20205;-85
2021/12/10 12:37:48;;;;;;;10.67;8.97;;;3.70;99.90;;;;;;5044012;28;20230;-83
2021/12/10 12:40:15;;;;;;;18.70;16.73;;;3.60;99.90;;;;;;5042678;28;20592;-84
2021/12/10 12:42:48;;;;;;;11.07;9.93;;;3.60;99.90;;;;;;5059352;28;20165;-85
2021/12/10 12:45:23;;;;;;;11.63;9.63;;;3.70;99.90;;;;;;5064941;28;20165;-83
2021/12/10 12:47:54;;;;;;;12.00;9.33;;;3.70;99.90;;;;;;5042837;28;20176;-81
2021/12/10 12:50:29;;;;;;;25.10;17.67;;;3.60;99.90;;;;;;5063970;28;20225;-80
2021/12/10 12:53:08;;;;;;;10.17;8.33;;;3.70;99.90;;;;;;5057509;28;20240;-82
2021/12/10 12:55:45;;;;;;;14.00;10.43;;;3.70;99.90;;;;;;5059927;28;20222;-84
2021/12/10 12:58:22;;;;;;;12.73;10.83;;;3.70;99.90;;;;;;5067405;28;20181;-82
2021/12/10 13:01:09;;;;;;;14.60;12.13;;;3.60;99.90;;;;;;5041207;28;20185;-81
2021/12/10 13:03:57;;;;;;;13.23;10.93;;;3.60;99.90;;;;;;5054714;28;20232;-83
2021/12/10 13:06:49;;;;;;;15.03;12.00;;;3.60;99.90;;;;;;5062713;28;20184;-80
2021/12/10 13:09:26;;;;;;;16.17;12.50;;;3.60;99.90;;;;;;5061236;28;20200;-87
2021/12/10 13:12:08;;;;;;;13.33;11.63;;;3.60;99.90;;;;;;5075508;28;20164;-86
2021/12/10 13:14:50;;;;;;;14.80;11.63;;;3.60;99.90;;;;;;5046269;28;20176;-85
2021/12/10 13:17:23;;;;;;;15.40;11.10;;;3.60;99.90;;;;;;5064775;28;20183;-84
2021/12/10 13:19:52;;;;;;;15.73;13.03;;;3.60;99.90;;;;;;5060745;28;20545;-83
2021/12/10 13:22:22;;;;;;;13.57;10.87;;;3.50;99.90;;;;;;5039234;28;20660;-83
2021/12/10 13:25:30;;;;;;;14.63;11.27;;;3.50;99.90;;;;;;5043051;28;20204;-87
2021/12/10 13:28:00;;;;;;;13.10;11.67;;;3.50;99.90;;;;;;5044658;28;20574;-84
2021/12/10 13:30:46;;;;;;;12.77;9.97;;;3.60;99.90;;;;;;5061780;28;20188;-85